createdAt,value
2017-12-30T00:02:08.569Z,4.27
2017-12-30T00:04:37.017Z,3.70
2017-12-30T00:07:04.579Z,4.30
2017-12-30T00:09:32.113Z,3.47
2017-12-30T00:12:00.449Z,4.03
2017-12-30T00:14:27.961Z,4.90
2017-12-30T00:16:55.435Z,5.17
2017-12-30T00:19:22.901Z,4.40
2017-12-30T00:21:50.377Z,4.10
2017-12-30T00:24:17.851Z,3.50
2017-12-30T00:26:45.552Z,4.20
2017-12-30T00:29:13.046Z,3.87
2017-12-30T00:31:40.543Z,4.23
2017-12-30T00:34:08.025Z,5.87
2017-12-30T00:36:35.519Z,4.70
2017-12-30T00:39:02.979Z,4.53
2017-12-30T00:41:30.468Z,5.13
2017-12-30T00:43:58.009Z,4.20
2017-12-30T00:46:25.473Z,6.83
2017-12-30T00:48:52.953Z,3.97
2017-12-30T00:51:20.450Z,5.13
2017-12-30T00:53:47.933Z,4.30
2017-12-30T00:56:15.489Z,4.97
2017-12-30T00:58:42.963Z,3.93
2017-12-30T01:01:10.469Z,5.03
2017-12-30T01:03:37.976Z,4.00
2017-12-30T01:06:05.457Z,3.93
2017-12-30T01:08:32.936Z,4.67
2017-12-30T01:11:00.408Z,4.40
2017-12-30T01:13:27.884Z,4.60
2017-12-30T01:15:55.371Z,4.23
2017-12-30T01:18:22.869Z,5.50
2017-12-30T01:20:50.321Z,5.10
2017-12-30T01:23:17.796Z,6.10
2017-12-30T01:25:45.277Z,4.13
2017-12-30T01:28:12.765Z,4.20
2017-12-30T01:30:40.217Z,6.03
2017-12-30T01:33:07.691Z,4.10
2017-12-30T01:35:35.149Z,8.17
2017-12-30T01:38:02.622Z,4.50
2017-12-30T01:40:30.097Z,4.77
2017-12-30T01:42:57.604Z,5.07
2017-12-30T01:45:25.061Z,4.90
2017-12-30T01:47:52.608Z,4.90
2017-12-30T01:50:20.080Z,4.37
2017-12-30T01:52:47.552Z,5.20
2017-12-30T01:55:15.017Z,5.40
2017-12-30T01:57:42.847Z,7.50
2017-12-30T02:00:10.338Z,7.80
2017-12-30T02:02:37.793Z,5.17
2017-12-30T02:05:05.249Z,7.73
2017-12-30T02:07:32.705Z,5.60
2017-12-30T02:10:00.177Z,7.83
2017-12-30T02:12:27.667Z,5.60
2017-12-30T02:14:55.149Z,9.17
2017-12-30T02:17:22.634Z,6.27
2017-12-30T02:19:50.124Z,5.17
2017-12-30T02:22:17.588Z,7.43
2017-12-30T02:24:45.073Z,5.30
2017-12-30T02:27:12.541Z,9.07
2017-12-30T02:29:40.019Z,5.53
2017-12-30T02:32:07.495Z,7.37
2017-12-30T02:34:34.957Z,6.30
2017-12-30T02:37:03.258Z,8.73
2017-12-30T02:39:30.735Z,5.70
2017-12-30T02:41:58.211Z,10.17
2017-12-30T02:44:25.696Z,9.73
2017-12-30T02:46:53.156Z,7.97
2017-12-30T02:49:20.621Z,9.20
2017-12-30T02:51:48.112Z,6.13
2017-12-30T02:54:15.591Z,12.27
2017-12-30T02:56:43.049Z,5.77
2017-12-30T02:59:10.518Z,7.47
2017-12-30T03:01:38.011Z,8.27
2017-12-30T03:04:05.477Z,9.40
2017-12-30T03:06:32.943Z,9.80
2017-12-30T03:09:00.424Z,6.37
2017-12-30T03:11:27.921Z,8.87
2017-12-30T03:13:55.389Z,7.60
2017-12-30T03:16:22.883Z,8.00
2017-12-30T03:18:50.341Z,10.30
2017-12-30T03:21:17.835Z,11.53
2017-12-30T03:23:45.289Z,7.83
2017-12-30T03:26:12.866Z,6.90
2017-12-30T04:14:32.260Z,10.90
2017-12-30T04:16:59.732Z,11.00
2017-12-30T04:19:27.185Z,7.47
2017-12-30T04:21:54.653Z,10.33
2017-12-30T04:24:22.131Z,8.50
2017-12-30T04:26:49.597Z,8.03
2017-12-30T04:29:17.067Z,9.80
2017-12-30T04:31:44.555Z,10.60
2017-12-30T04:34:12.057Z,12.30
2017-12-30T04:36:39.525Z,11.53
2017-12-30T04:39:06.997Z,9.17
2017-12-30T04:41:34.527Z,13.57
2017-12-30T04:44:02.053Z,9.60
2017-12-30T04:46:29.551Z,9.30
2017-12-30T04:48:57.892Z,12.37
2017-12-30T04:51:25.374Z,8.13
2017-12-30T04:53:52.840Z,13.80
2017-12-30T04:56:20.350Z,14.83
2017-12-30T04:58:47.841Z,13.87
2017-12-30T05:01:15.319Z,16.57
2017-12-30T05:03:42.803Z,14.40
2017-12-30T05:06:10.289Z,14.47
2017-12-30T05:08:37.786Z,11.83
2017-12-30T05:11:05.265Z,12.83
2017-12-30T05:13:32.751Z,10.57
2017-12-30T05:16:00.214Z,16.17
2017-12-30T05:18:27.696Z,9.63
2017-12-30T05:20:55.196Z,14.53
2017-12-30T05:23:22.677Z,11.00
2017-12-30T05:25:50.159Z,10.83
2017-12-30T05:28:17.736Z,15.87
2017-12-30T05:30:45.235Z,11.40
2017-12-30T05:33:12.723Z,10.97
2017-12-30T05:35:40.187Z,9.27
2017-12-30T05:38:07.672Z,10.57
2017-12-30T05:40:36.082Z,12.37
2017-12-30T05:43:03.583Z,8.10
2017-12-30T05:45:31.093Z,10.07
2017-12-30T05:47:58.592Z,12.63
2017-12-30T05:50:26.053Z,12.27
2017-12-30T05:52:53.545Z,16.17
2017-12-30T05:55:21.008Z,8.67
2017-12-30T05:57:48.517Z,8.13
2017-12-30T06:00:16.051Z,10.03
2017-12-30T06:02:43.537Z,17.00
2017-12-30T06:05:11.016Z,14.40
2017-12-30T06:07:38.518Z,7.83
2017-12-30T06:10:05.978Z,13.90
2017-12-30T06:12:33.465Z,11.10
2017-12-30T06:15:00.959Z,12.57
2017-12-30T06:17:28.445Z,12.13
2017-12-30T06:19:55.937Z,13.63
2017-12-30T06:22:23.409Z,15.00
2017-12-30T06:24:50.911Z,15.60
2017-12-30T06:27:18.389Z,15.80
2017-12-30T06:29:45.891Z,13.00
2017-12-30T06:32:13.379Z,10.13
2017-12-30T06:34:40.879Z,16.33
2017-12-30T06:37:08.362Z,11.97
2017-12-30T06:39:35.815Z,8.63
2017-12-30T06:42:03.276Z,9.60
2017-12-30T06:44:30.756Z,14.23
2017-12-30T06:46:58.253Z,10.07
2017-12-30T06:49:25.744Z,14.43
2017-12-30T06:51:53.209Z,13.93
2017-12-30T06:54:20.671Z,7.83
2017-12-30T06:56:48.142Z,13.47
2017-12-30T06:59:15.612Z,10.97
2017-12-30T07:01:43.106Z,10.17
2017-12-30T07:04:10.587Z,8.57
2017-12-30T07:06:38.069Z,6.70
2017-12-30T07:09:05.545Z,10.97
2017-12-30T07:11:33.028Z,8.00
2017-12-30T07:14:00.532Z,13.20
2017-12-30T07:16:28.105Z,12.07
2017-12-30T07:18:55.575Z,6.27
2017-12-30T07:21:23.033Z,9.47
2017-12-30T07:23:50.501Z,12.00
2017-12-30T07:26:17.996Z,10.37
2017-12-30T07:28:45.483Z,9.47
2017-12-30T07:31:12.960Z,12.87
2017-12-30T07:33:40.417Z,8.13
2017-12-30T07:36:08.292Z,12.57
2017-12-30T07:38:35.795Z,12.53
2017-12-30T07:41:03.772Z,12.47
2017-12-30T07:43:31.229Z,8.53
2017-12-30T07:45:58.727Z,9.77
2017-12-30T07:48:26.238Z,8.37
2017-12-30T07:50:53.721Z,16.50
2017-12-30T07:53:21.224Z,12.97
2017-12-30T07:55:48.705Z,12.53
2017-12-30T07:58:16.172Z,7.97
2017-12-30T08:00:43.655Z,13.50
2017-12-30T08:03:11.121Z,14.57
2017-12-30T08:05:38.584Z,10.43
2017-12-30T08:08:07.033Z,9.87
2017-12-30T08:10:34.522Z,11.37
2017-12-30T08:13:02.056Z,9.43
2017-12-30T08:15:29.545Z,9.53
2017-12-30T08:17:57.009Z,10.60
2017-12-30T08:20:24.860Z,10.50
2017-12-30T08:22:52.327Z,10.20
2017-12-30T08:25:19.809Z,22.20
2017-12-30T08:27:47.269Z,9.53
2017-12-30T08:30:14.745Z,8.20
2017-12-30T08:32:42.220Z,14.90
2017-12-30T08:35:09.699Z,8.70
2017-12-30T08:37:37.184Z,12.60
2017-12-30T08:40:04.681Z,11.63
2017-12-30T08:42:32.171Z,13.03
2017-12-30T08:44:59.633Z,12.27
2017-12-30T08:47:27.090Z,11.03
2017-12-30T08:49:54.567Z,7.87
2017-12-30T08:52:22.042Z,12.27
2017-12-30T08:54:49.791Z,9.30
2017-12-30T08:57:18.313Z,9.80
2017-12-30T08:59:45.777Z,14.07
2017-12-30T09:02:13.557Z,7.97
2017-12-30T09:04:41.084Z,13.07
2017-12-30T09:07:08.547Z,15.20
2017-12-30T09:09:36.347Z,16.83
2017-12-30T09:12:03.846Z,10.73
2017-12-30T09:14:31.320Z,10.20
2017-12-30T09:16:58.791Z,12.20
2017-12-30T09:19:26.273Z,18.63
2017-12-30T09:21:53.750Z,8.73
2017-12-30T09:24:21.222Z,18.67
2017-12-30T09:26:48.765Z,12.87
2017-12-30T09:29:16.219Z,12.63
2017-12-30T09:31:43.701Z,10.70
2017-12-30T09:34:11.195Z,13.00
2017-12-30T09:36:38.681Z,12.37
2017-12-30T09:39:06.172Z,10.10
2017-12-30T09:41:33.663Z,12.00
2017-12-30T09:44:01.145Z,14.43
2017-12-30T09:46:28.635Z,9.20
2017-12-30T09:48:56.128Z,17.40
2017-12-30T09:51:23.607Z,11.27
2017-12-30T09:53:51.558Z,13.20
2017-12-30T09:56:19.043Z,12.87
2017-12-30T09:58:46.931Z,17.93
2017-12-30T10:01:14.416Z,15.77
2017-12-30T10:03:41.884Z,22.73
2017-12-30T10:06:09.833Z,15.13
2017-12-30T10:08:37.313Z,8.93
2017-12-30T10:11:04.806Z,12.83
2017-12-30T10:13:32.288Z,9.23
2017-12-30T10:15:59.767Z,14.87
2017-12-30T10:18:27.269Z,14.07
2017-12-30T10:20:54.806Z,12.33
2017-12-30T10:23:22.299Z,13.87
2017-12-30T10:25:49.790Z,15.07
2017-12-30T10:28:17.272Z,13.50
2017-12-30T10:30:44.744Z,12.60
2017-12-30T10:33:12.212Z,10.30
2017-12-30T10:35:39.682Z,9.20
2017-12-30T10:38:07.165Z,7.77
2017-12-30T10:40:34.658Z,13.37
2017-12-30T10:43:02.159Z,8.80
2017-12-30T10:45:29.618Z,8.43
2017-12-30T10:47:57.125Z,12.50
2017-12-30T10:50:24.597Z,9.67
2017-12-30T10:52:52.076Z,8.63
2017-12-30T10:55:22.370Z,7.47
2017-12-30T10:57:49.829Z,10.00
2017-12-30T11:00:18.208Z,11.07
2017-12-30T11:02:45.677Z,10.27
2017-12-30T11:05:14.385Z,11.00
2017-12-30T11:07:41.837Z,3.67
2017-12-30T11:10:09.344Z,4.47
2017-12-30T11:12:36.850Z,4.97
2017-12-30T11:15:05.140Z,6.37
2017-12-30T11:17:32.633Z,8.73
2017-12-30T11:20:00.122Z,13.20
2017-12-30T11:22:27.603Z,14.37
2017-12-30T11:24:55.102Z,9.23
2017-12-30T11:27:22.591Z,12.53
2017-12-30T11:29:50.765Z,15.87
2017-12-30T11:32:18.242Z,16.17
2017-12-30T11:34:45.734Z,15.47
2017-12-30T11:37:13.209Z,12.50
2017-12-30T11:39:40.687Z,11.07
2017-12-30T11:42:08.167Z,10.07
2017-12-30T11:44:35.621Z,5.60
2017-12-30T11:47:03.095Z,9.67
2017-12-30T11:49:30.549Z,13.37
2017-12-30T11:51:58.003Z,9.57
2017-12-30T11:54:25.499Z,8.03
2017-12-30T11:56:53.156Z,10.27
2017-12-30T11:59:20.647Z,5.17
2017-12-30T12:01:48.124Z,7.67
2017-12-30T12:04:15.599Z,3.70
2017-12-30T12:06:43.263Z,4.70
2017-12-30T12:09:10.734Z,8.03
2017-12-30T12:11:38.253Z,4.20
2017-12-30T12:14:05.717Z,3.30
2017-12-30T12:16:33.169Z,3.53
2017-12-30T12:19:00.635Z,4.47
2017-12-30T12:21:28.118Z,2.50
2017-12-30T12:23:55.584Z,2.83
2017-12-30T12:26:23.060Z,2.10
2017-12-30T12:28:50.539Z,3.73
2017-12-30T12:31:18.021Z,3.37
2017-12-30T12:33:45.482Z,2.53
2017-12-30T12:36:12.960Z,2.23
2017-12-30T12:38:40.430Z,5.60
2017-12-30T12:41:07.881Z,2.50
2017-12-30T12:43:35.350Z,2.47
2017-12-30T12:46:02.814Z,2.03
2017-12-30T12:48:30.351Z,3.10
2017-12-30T12:50:57.821Z,2.00
2017-12-30T12:53:25.292Z,2.17
2017-12-30T12:55:52.758Z,2.00
2017-12-30T12:58:20.252Z,2.20
2017-12-30T13:00:47.732Z,2.00
2017-12-30T13:03:15.215Z,3.10
2017-12-30T13:05:42.748Z,2.20
2017-12-30T13:08:10.229Z,2.60
2017-12-30T13:10:37.709Z,2.03
2017-12-30T13:13:05.218Z,2.30
2017-12-30T13:15:32.687Z,1.73
2017-12-30T13:18:00.181Z,2.87
2017-12-30T13:20:27.655Z,1.70
2017-12-30T13:22:55.136Z,1.70
2017-12-30T13:25:22.654Z,1.40
2017-12-30T13:27:50.117Z,1.70
2017-12-30T13:30:17.595Z,1.50
2017-12-30T13:32:45.411Z,1.60
2017-12-30T13:35:12.890Z,1.40
2017-12-30T13:37:40.416Z,1.50
2017-12-30T13:40:07.885Z,1.37
2017-12-30T13:42:35.336Z,1.53
2017-12-30T13:45:02.821Z,1.63
2017-12-30T13:47:30.281Z,1.70
2017-12-30T13:49:57.771Z,2.13
2017-12-30T13:52:25.289Z,1.80
2017-12-30T13:54:52.778Z,1.37
2017-12-30T13:57:20.286Z,2.00
2017-12-30T13:59:48.014Z,3.93
2017-12-30T14:02:15.469Z,1.87
2017-12-30T14:04:42.989Z,1.63
2017-12-30T14:07:10.493Z,2.47
2017-12-30T14:09:40.111Z,2.97
2017-12-30T14:12:07.595Z,6.37
2017-12-30T14:14:35.104Z,4.13
2017-12-30T14:17:02.585Z,6.83
2017-12-30T14:19:30.086Z,11.90
2017-12-30T14:21:57.569Z,10.33
2017-12-30T14:24:25.057Z,11.00
2017-12-30T14:26:52.543Z,6.43
2017-12-30T14:29:20.015Z,10.83
2017-12-30T14:31:47.508Z,8.30
2017-12-30T14:34:14.973Z,13.23
2017-12-30T14:36:42.449Z,9.57
2017-12-30T14:39:09.954Z,15.60
2017-12-30T14:41:38.018Z,12.53
2017-12-30T14:44:05.489Z,11.23
2017-12-30T14:46:32.968Z,10.60
2017-12-30T14:49:01.849Z,8.70
2017-12-30T14:51:29.417Z,13.00
2017-12-30T14:53:56.915Z,13.00
2017-12-30T14:56:24.861Z,4.47
2017-12-30T14:58:52.383Z,9.20
2017-12-30T15:01:19.853Z,9.73
2017-12-30T15:03:47.331Z,14.93
2017-12-30T15:06:14.807Z,14.73
2017-12-30T15:08:42.282Z,14.53
2017-12-30T15:11:09.758Z,10.57
2017-12-30T15:13:37.236Z,8.83
2017-12-30T15:16:04.715Z,12.13
2017-12-30T15:18:32.216Z,9.37
2017-12-30T15:21:00.243Z,12.50
2017-12-30T15:23:27.756Z,9.50
2017-12-30T15:25:55.218Z,7.77
2017-12-30T15:28:22.673Z,6.23
2017-12-30T15:30:50.133Z,9.83
2017-12-30T15:33:17.601Z,8.97
2017-12-30T15:35:45.088Z,11.37
2017-12-30T15:38:12.595Z,11.30
2017-12-30T15:40:40.132Z,10.83
2017-12-30T15:43:07.613Z,8.70
2017-12-30T15:45:35.090Z,13.37
2017-12-30T15:48:02.568Z,14.40
2017-12-30T15:50:30.030Z,14.10
2017-12-30T15:52:57.516Z,18.17
2017-12-30T15:55:25.016Z,13.07
2017-12-30T15:57:52.591Z,14.07
2017-12-30T16:00:20.073Z,15.87
2017-12-30T16:02:47.608Z,22.33
2017-12-30T16:05:15.082Z,17.90
2017-12-30T16:07:42.595Z,20.53
2017-12-30T16:10:10.072Z,22.20
2017-12-30T16:12:37.568Z,16.93
2017-12-30T16:15:05.064Z,18.10
2017-12-30T16:17:32.572Z,16.03
2017-12-30T16:20:00.082Z,19.17
2017-12-30T16:22:27.565Z,25.10
2017-12-30T16:24:55.114Z,20.33
2017-12-30T16:27:24.176Z,21.90
2017-12-30T16:29:51.668Z,24.63
2017-12-30T16:35:13.358Z,29.80
2017-12-30T16:37:40.906Z,27.13
2017-12-30T16:40:08.394Z,21.00
2017-12-30T16:42:35.891Z,31.80
2017-12-30T16:45:03.355Z,35.57
2017-12-30T16:47:30.937Z,35.10
2017-12-30T16:49:58.447Z,26.27
2017-12-30T16:52:25.934Z,23.13
2017-12-30T16:54:53.412Z,37.87
2017-12-30T16:57:20.903Z,32.90
2017-12-30T16:59:48.415Z,30.27
2017-12-30T17:02:15.890Z,26.77
2017-12-30T17:04:43.368Z,35.73
2017-12-30T17:07:10.823Z,32.20
2017-12-30T17:09:38.305Z,39.77
2017-12-30T17:12:05.786Z,39.00
2017-12-30T17:14:33.253Z,35.57
2017-12-30T17:17:00.743Z,40.87
2017-12-30T17:19:28.466Z,38.80
2017-12-30T17:21:55.974Z,35.17
2017-12-30T17:24:23.438Z,42.63
2017-12-30T17:26:50.991Z,41.00
2017-12-30T17:29:18.467Z,36.07
2017-12-30T17:31:45.942Z,40.13
2017-12-30T17:34:13.402Z,45.83
2017-12-30T17:36:40.929Z,41.47
2017-12-30T17:39:08.404Z,38.27
2017-12-30T17:41:35.875Z,41.10
2017-12-30T17:44:03.333Z,45.30
2017-12-30T17:46:30.830Z,44.83
2017-12-30T17:48:58.316Z,39.20
2017-12-30T17:51:25.803Z,38.40
2017-12-30T17:53:53.295Z,36.07
2017-12-30T17:56:20.788Z,38.57
2017-12-30T17:58:49.443Z,44.77
2017-12-30T18:01:17.730Z,35.23
2017-12-30T18:03:45.220Z,29.17
2017-12-30T18:06:13.074Z,36.07
2017-12-30T18:08:40.571Z,28.73
2017-12-30T18:11:08.045Z,33.90
2017-12-30T18:16:28.514Z,26.93
2017-12-30T18:18:56.028Z,37.03
2017-12-30T18:21:23.523Z,35.33
2017-12-30T18:23:51.699Z,33.03
2017-12-30T18:26:19.196Z,33.87
2017-12-30T18:28:48.315Z,31.30
2017-12-30T18:31:15.771Z,37.53
2017-12-30T18:33:43.291Z,34.10
2017-12-30T18:36:11.099Z,32.20
2017-12-30T18:38:38.575Z,30.97
2017-12-30T18:41:06.061Z,33.67
2017-12-30T18:43:33.548Z,31.03
2017-12-30T18:46:02.145Z,35.63
2017-12-30T18:48:29.733Z,28.43
2017-12-30T18:50:57.401Z,26.30
2017-12-30T18:53:24.904Z,26.40
2017-12-30T18:55:52.388Z,13.77
2017-12-30T18:58:19.886Z,16.33
2017-12-30T19:00:47.358Z,16.20
2017-12-30T19:03:14.852Z,19.70
2017-12-30T19:05:42.359Z,15.67
2017-12-30T19:08:10.120Z,16.47
2017-12-30T19:10:37.594Z,16.97
2017-12-30T19:13:05.077Z,14.47
2017-12-30T19:15:32.545Z,15.30
2017-12-30T19:18:00.589Z,19.33
2017-12-30T19:20:28.100Z,14.40
2017-12-30T19:22:55.610Z,13.37
2017-12-30T19:25:37.304Z,17.77
2017-12-30T19:28:04.801Z,21.43
2017-12-30T19:30:33.030Z,19.00
2017-12-30T19:33:00.545Z,18.20
2017-12-30T19:35:28.028Z,19.07
2017-12-30T19:37:55.536Z,24.77
2017-12-30T19:40:23.055Z,29.97
2017-12-30T19:42:51.512Z,23.10
2017-12-30T19:45:19.517Z,31.17
2017-12-30T19:47:46.997Z,28.10
2017-12-30T19:50:14.491Z,30.13
2017-12-30T19:52:41.989Z,36.60
2017-12-30T19:55:09.469Z,33.53
2017-12-30T19:57:36.973Z,35.63
2017-12-30T20:00:04.465Z,34.37
2017-12-30T20:02:31.945Z,36.73
2017-12-30T20:04:59.418Z,39.23
2017-12-30T20:07:26.898Z,36.40
2017-12-30T20:09:54.395Z,41.13
2017-12-30T20:12:23.839Z,34.17
2017-12-30T20:14:51.354Z,24.80
2017-12-30T20:17:18.832Z,42.23
2017-12-30T20:19:46.327Z,32.97
2017-12-30T20:22:13.805Z,36.90
2017-12-30T20:24:41.312Z,39.27
2017-12-30T20:27:08.778Z,33.53
2017-12-30T20:29:36.320Z,38.57
2017-12-30T20:32:03.794Z,30.97
2017-12-30T20:34:31.265Z,31.50
2017-12-30T20:36:58.747Z,34.73
2017-12-30T20:39:26.240Z,43.47
2017-12-30T20:41:53.714Z,28.47
2017-12-30T20:44:21.318Z,30.93
2017-12-30T20:46:48.781Z,40.77
2017-12-30T20:49:16.269Z,29.27
2017-12-30T20:51:53.042Z,36.57
2017-12-30T20:54:20.514Z,29.43
2017-12-30T20:56:48.009Z,39.87
2017-12-30T20:59:15.485Z,30.73
2017-12-30T21:01:42.967Z,41.23
2017-12-30T21:04:10.487Z,28.93
2017-12-30T21:06:37.965Z,25.83
2017-12-30T21:09:05.429Z,40.37
2017-12-30T21:11:33.134Z,25.80
2017-12-30T21:14:00.610Z,34.17
2017-12-30T21:16:28.161Z,28.17
2017-12-30T21:18:55.676Z,36.03
2017-12-30T21:21:23.172Z,38.27
2017-12-30T21:23:50.872Z,29.47
2017-12-30T21:26:18.347Z,28.83
2017-12-30T21:28:45.852Z,28.40
2017-12-30T21:31:13.718Z,27.80
2017-12-30T21:33:41.205Z,30.33
2017-12-30T21:36:08.685Z,28.53
2017-12-30T21:38:36.215Z,28.20
2017-12-30T21:41:03.690Z,23.47
2017-12-30T21:43:32.164Z,25.80
2017-12-30T21:46:00.527Z,27.17
2017-12-30T21:48:28.017Z,24.47
2017-12-30T21:50:55.532Z,32.40
2017-12-30T21:53:23.020Z,23.47
2017-12-30T21:55:50.515Z,22.33
2017-12-30T21:58:18.008Z,27.27
2017-12-30T22:00:45.473Z,27.60
2017-12-30T22:03:12.951Z,23.10
2017-12-30T22:05:40.431Z,15.80
2017-12-30T22:08:07.984Z,26.43
2017-12-30T22:10:35.512Z,18.03
2017-12-30T22:13:03.000Z,14.03
2017-12-30T22:15:30.454Z,16.50
2017-12-30T22:17:57.971Z,20.77
2017-12-30T22:20:25.442Z,16.63
2017-12-30T22:22:52.919Z,20.80
2017-12-30T22:25:20.392Z,9.80
2017-12-30T22:27:47.920Z,10.30
2017-12-30T22:30:15.419Z,20.27
2017-12-30T22:32:42.919Z,14.23
2017-12-30T22:35:10.396Z,15.80
2017-12-30T22:37:37.879Z,18.03
2017-12-30T22:40:05.498Z,13.13
2017-12-30T22:42:32.970Z,11.80
2017-12-30T22:45:00.518Z,15.00
2017-12-30T22:47:27.977Z,18.17
2017-12-30T22:49:55.572Z,18.00
2017-12-30T22:52:23.067Z,22.67
2017-12-30T22:54:50.550Z,19.53
2017-12-30T22:57:18.837Z,21.97
2017-12-30T22:59:48.319Z,17.90
2017-12-30T23:02:15.921Z,22.27
2017-12-30T23:04:43.435Z,17.60
2017-12-30T23:07:13.886Z,23.00
2017-12-30T23:09:41.368Z,26.37
2017-12-30T23:12:08.872Z,25.40
2017-12-30T23:14:37.126Z,23.40
2017-12-30T23:17:09.312Z,23.30
2017-12-30T23:19:36.785Z,30.57
2017-12-30T23:22:04.373Z,25.53
2017-12-30T23:24:32.769Z,26.47
2017-12-30T23:27:00.331Z,17.97
2017-12-30T23:29:28.144Z,23.27
2017-12-30T23:31:55.641Z,32.93
2017-12-30T23:34:23.137Z,26.87
2017-12-30T23:36:50.594Z,26.30
2017-12-30T23:39:18.057Z,28.47
2017-12-30T23:41:45.537Z,28.80
2017-12-30T23:44:17.551Z,27.90
2017-12-30T23:46:45.079Z,25.87
2017-12-30T23:49:12.571Z,24.93
2017-12-30T23:51:40.143Z,23.03
2017-12-30T23:54:07.618Z,31.87
2017-12-30T23:56:35.119Z,32.20
2017-12-30T23:59:02.625Z,33.70
